createdAt,value
2018-07-31T00:02:00.945Z,23.40
2018-07-31T00:04:32.478Z,23.50
2018-07-31T00:07:04.034Z,23.60
2018-07-31T00:09:35.400Z,23.60
2018-07-31T00:12:06.496Z,23.50
2018-07-31T00:14:37.683Z,23.40
2018-07-31T00:17:08.935Z,23.30
2018-07-31T00:19:40.202Z,23.20
2018-07-31T00:22:11.488Z,23.00
2018-07-31T00:24:42.607Z,22.90
2018-07-31T00:27:13.739Z,22.70
2018-07-31T00:29:44.905Z,22.60
2018-07-31T00:32:15.904Z,22.50
2018-07-31T00:34:47.134Z,22.30
2018-07-31T00:37:18.329Z,22.20
2018-07-31T00:39:49.628Z,22.10
2018-07-31T00:42:20.749Z,22.00
2018-07-31T00:44:51.744Z,21.80
2018-07-31T00:47:22.776Z,21.80
2018-07-31T00:49:53.871Z,21.70
2018-07-31T00:52:25.222Z,21.60
2018-07-31T00:54:56.266Z,21.60
2018-07-31T00:57:27.413Z,21.50
2018-07-31T00:59:58.694Z,21.50
2018-07-31T01:02:29.762Z,21.50
2018-07-31T01:05:00.839Z,21.40
2018-07-31T01:07:32.087Z,21.10
2018-07-31T01:10:03.367Z,21.00
2018-07-31T01:12:34.461Z,20.90
2018-07-31T01:15:05.889Z,20.80
2018-07-31T01:17:36.939Z,20.60
2018-07-31T01:20:08.202Z,20.60
2018-07-31T01:22:39.507Z,20.50
2018-07-31T01:25:10.742Z,20.40
2018-07-31T01:30:11.967Z,20.30
2018-07-31T01:32:43.277Z,20.20
2018-07-31T01:35:14.411Z,20.20
2018-07-31T01:37:45.850Z,20.20
2018-07-31T01:42:47.286Z,20.10
2018-07-31T01:45:18.470Z,19.90
2018-07-31T01:47:51.614Z,19.80
2018-07-31T01:50:22.758Z,19.70
2018-07-31T01:52:53.761Z,19.70
2018-07-31T01:55:24.801Z,19.60
2018-07-31T01:57:55.963Z,19.60
2018-07-31T02:00:26.938Z,19.60
2018-07-31T02:02:58.048Z,19.50
2018-07-31T02:05:29.056Z,19.50
2018-07-31T02:08:00.403Z,19.20
2018-07-31T02:10:31.546Z,19.00
2018-07-31T02:13:02.667Z,19.10
2018-07-31T02:15:33.864Z,19.20
2018-07-31T02:18:05.066Z,18.90
2018-07-31T02:20:36.307Z,18.70
2018-07-31T02:23:08.101Z,18.50
2018-07-31T02:25:39.233Z,18.50
2018-07-31T02:28:10.339Z,18.50
2018-07-31T02:30:41.508Z,18.40
2018-07-31T02:33:12.563Z,18.40
2018-07-31T02:35:43.667Z,18.40
2018-07-31T02:38:14.732Z,18.60
2018-07-31T02:40:45.963Z,18.70
2018-07-31T02:43:17.008Z,18.70
2018-07-31T02:48:18.526Z,18.50
2018-07-31T02:50:49.547Z,18.30
2018-07-31T02:53:20.853Z,18.20
2018-07-31T02:55:52.090Z,18.10
2018-07-31T02:58:23.314Z,18.00
2018-07-31T03:00:54.590Z,18.10
2018-07-31T03:03:25.894Z,18.00
2018-07-31T03:05:57.552Z,18.00
2018-07-31T03:08:28.683Z,17.90
2018-07-31T03:10:59.907Z,17.90
2018-07-31T03:13:31.298Z,18.00
2018-07-31T03:16:02.641Z,17.90
2018-07-31T03:18:33.933Z,17.90
2018-07-31T03:21:05.263Z,18.00
2018-07-31T03:23:36.683Z,17.90
2018-07-31T03:26:08.068Z,17.80
2018-07-31T03:28:39.227Z,17.60
2018-07-31T03:31:10.324Z,17.60
2018-07-31T03:33:41.441Z,17.50
2018-07-31T03:36:12.798Z,17.40
2018-07-31T03:38:44.081Z,17.50
2018-07-31T03:41:15.125Z,17.50
2018-07-31T03:43:46.227Z,17.60
2018-07-31T03:46:17.618Z,17.50
2018-07-31T03:48:48.829Z,17.50
2018-07-31T03:51:19.896Z,17.40
2018-07-31T03:53:51.011Z,17.30
2018-07-31T03:56:22.287Z,17.20
2018-07-31T03:58:53.454Z,17.10
2018-07-31T04:01:24.758Z,17.00
2018-07-31T04:03:55.845Z,17.00
2018-07-31T04:06:26.866Z,17.10
2018-07-31T04:08:58.052Z,17.20
2018-07-31T04:11:29.078Z,17.30
2018-07-31T04:14:00.233Z,17.40
2018-07-31T04:16:31.444Z,17.50
2018-07-31T04:19:02.596Z,17.40
2018-07-31T04:21:33.948Z,17.30
2018-07-31T04:24:05.255Z,17.30
2018-07-31T04:26:36.488Z,17.30
2018-07-31T04:29:08.060Z,17.20
2018-07-31T04:31:39.267Z,17.10
2018-07-31T04:34:10.497Z,17.10
2018-07-31T04:36:41.790Z,17.10
2018-07-31T04:39:14.564Z,17.00
2018-07-31T04:41:45.938Z,16.90
2018-07-31T04:44:17.202Z,16.80
2018-07-31T04:46:48.363Z,16.80
2018-07-31T04:49:19.639Z,16.80
2018-07-31T04:51:50.915Z,16.90
2018-07-31T04:54:22.155Z,16.80
2018-07-31T04:56:53.389Z,16.70
2018-07-31T04:59:24.585Z,16.70
2018-07-31T05:01:55.771Z,16.70
2018-07-31T05:04:27.090Z,16.60
2018-07-31T05:06:58.271Z,16.60
2018-07-31T05:09:29.432Z,16.60
2018-07-31T05:12:00.578Z,16.60
2018-07-31T05:14:31.856Z,16.60
2018-07-31T05:17:03.102Z,16.60
2018-07-31T05:19:34.347Z,16.60
2018-07-31T05:22:05.691Z,16.70
2018-07-31T05:24:36.830Z,16.70
2018-07-31T05:27:08.100Z,16.70
2018-07-31T05:29:39.366Z,16.70
2018-07-31T05:32:10.569Z,16.60
2018-07-31T05:34:41.909Z,16.50
2018-07-31T05:37:13.269Z,16.50
2018-07-31T05:39:44.518Z,16.50
2018-07-31T05:42:16.019Z,16.50
2018-07-31T05:44:47.236Z,16.60
2018-07-31T05:47:18.453Z,16.60
2018-07-31T05:49:49.672Z,16.60
2018-07-31T05:52:20.952Z,16.60
2018-07-31T05:54:52.173Z,16.60
2018-07-31T05:57:23.399Z,16.60
2018-07-31T05:59:54.651Z,16.60
2018-07-31T06:02:25.990Z,16.60
2018-07-31T06:04:57.166Z,16.60
2018-07-31T06:07:28.349Z,16.70
2018-07-31T06:09:59.478Z,16.80
2018-07-31T06:12:30.571Z,16.80
2018-07-31T06:15:01.884Z,16.90
2018-07-31T06:17:33.236Z,17.00
2018-07-31T06:20:05.139Z,17.00
2018-07-31T06:22:36.293Z,17.10
2018-07-31T06:25:07.868Z,17.20
2018-07-31T06:30:13.241Z,17.30
2018-07-31T06:32:44.680Z,17.30
2018-07-31T06:35:16.250Z,17.30
2018-07-31T06:37:47.530Z,17.30
2018-07-31T06:40:18.773Z,17.30
2018-07-31T06:42:49.882Z,17.30
2018-07-31T06:45:21.107Z,17.30
2018-07-31T06:47:52.391Z,17.30
2018-07-31T06:50:23.543Z,17.30
2018-07-31T06:52:54.781Z,17.30
2018-07-31T06:55:25.955Z,17.40
2018-07-31T06:57:57.086Z,17.40
2018-07-31T07:00:28.528Z,17.40
2018-07-31T07:02:59.902Z,17.40
2018-07-31T07:05:31.002Z,17.40
2018-07-31T07:08:02.267Z,17.40
2018-07-31T07:10:33.443Z,17.40
2018-07-31T07:13:04.611Z,17.40
2018-07-31T07:15:35.936Z,17.50
2018-07-31T07:18:07.382Z,17.50
2018-07-31T07:20:38.573Z,17.50
2018-07-31T07:23:09.771Z,17.50
2018-07-31T07:25:41.081Z,17.50
2018-07-31T07:28:12.264Z,17.50
2018-07-31T07:30:43.415Z,17.50
2018-07-31T07:33:14.638Z,17.50
2018-07-31T07:35:45.905Z,17.50
2018-07-31T07:38:17.219Z,17.40
2018-07-31T07:40:48.452Z,17.40
2018-07-31T07:43:19.810Z,17.40
2018-07-31T07:45:51.214Z,17.50
2018-07-31T07:48:22.566Z,17.40
2018-07-31T07:50:54.097Z,17.40
2018-07-31T07:53:25.487Z,17.40
2018-07-31T07:55:56.551Z,17.40
2018-07-31T07:58:27.631Z,17.40
2018-07-31T08:00:58.837Z,17.40
2018-07-31T08:03:29.976Z,17.30
2018-07-31T08:06:01.258Z,17.30
2018-07-31T08:08:32.448Z,17.30
2018-07-31T08:11:03.803Z,17.30
2018-07-31T08:13:35.070Z,17.20
2018-07-31T08:16:06.490Z,17.20
2018-07-31T08:18:37.692Z,17.20
2018-07-31T08:21:08.948Z,17.10
2018-07-31T08:23:40.182Z,17.10
2018-07-31T08:26:11.472Z,17.10
2018-07-31T08:28:42.713Z,17.10
2018-07-31T08:31:14.033Z,17.10
2018-07-31T08:33:45.301Z,17.00
2018-07-31T08:36:16.559Z,17.00
2018-07-31T08:38:47.881Z,17.00
2018-07-31T08:41:19.091Z,17.00
2018-07-31T08:43:50.474Z,16.90
2018-07-31T08:46:21.692Z,16.90
2018-07-31T08:48:53.350Z,16.90
2018-07-31T08:51:24.750Z,16.90
2018-07-31T08:53:56.050Z,17.00
2018-07-31T08:56:27.500Z,17.00
2018-07-31T08:58:58.649Z,17.00
2018-07-31T09:01:29.902Z,17.00
2018-07-31T09:04:01.204Z,17.00
2018-07-31T09:06:32.320Z,17.00
2018-07-31T09:09:03.741Z,17.00
2018-07-31T09:11:34.979Z,16.90
2018-07-31T09:14:07.837Z,17.00
2018-07-31T09:16:39.773Z,17.00
2018-07-31T09:19:11.151Z,17.00
2018-07-31T09:21:42.563Z,16.90
2018-07-31T09:24:13.961Z,16.90
2018-07-31T09:26:45.432Z,16.90
2018-07-31T09:29:16.766Z,16.90
2018-07-31T09:31:47.982Z,16.90
2018-07-31T09:34:19.277Z,16.90
2018-07-31T09:36:50.546Z,16.90
2018-07-31T09:39:21.813Z,16.90
2018-07-31T09:41:52.997Z,16.90
2018-07-31T09:44:24.247Z,16.90
2018-07-31T09:46:55.454Z,16.90
2018-07-31T09:49:26.746Z,16.90
2018-07-31T09:51:57.983Z,16.90
2018-07-31T09:54:29.293Z,16.90
2018-07-31T09:57:00.787Z,16.90
2018-07-31T09:59:32.111Z,17.00
2018-07-31T10:02:03.402Z,17.00
2018-07-31T10:04:34.641Z,17.10
2018-07-31T10:07:05.970Z,17.10
2018-07-31T10:09:37.133Z,17.20
2018-07-31T10:12:08.450Z,17.20
2018-07-31T10:14:39.776Z,17.20
2018-07-31T10:17:10.956Z,17.30
2018-07-31T10:19:42.239Z,17.30
2018-07-31T10:22:13.351Z,17.40
2018-07-31T10:24:44.647Z,17.50
2018-07-31T10:27:15.859Z,17.60
2018-07-31T10:29:47.153Z,17.70
2018-07-31T10:32:18.226Z,17.70
2018-07-31T10:34:49.333Z,17.80
2018-07-31T10:37:20.511Z,17.90
2018-07-31T10:39:51.657Z,17.90
2018-07-31T10:42:22.802Z,17.90
2018-07-31T10:44:53.929Z,18.00
2018-07-31T10:47:25.093Z,18.00
2018-07-31T10:49:56.383Z,18.00
2018-07-31T10:52:28.075Z,18.10
2018-07-31T10:54:59.116Z,18.20
2018-07-31T10:57:30.455Z,18.20
2018-07-31T11:00:01.971Z,18.30
2018-07-31T11:02:33.169Z,18.30
2018-07-31T11:05:04.707Z,18.40
2018-07-31T11:07:36.081Z,18.40
2018-07-31T11:10:07.913Z,18.50
2018-07-31T11:12:39.123Z,18.50
2018-07-31T11:15:10.357Z,18.60
2018-07-31T11:20:11.901Z,18.70
2018-07-31T11:22:43.151Z,18.80
2018-07-31T11:25:14.463Z,18.80
2018-07-31T11:27:45.656Z,19.00
2018-07-31T11:30:16.890Z,19.00
2018-07-31T11:32:48.063Z,19.10
2018-07-31T11:35:19.252Z,19.30
2018-07-31T11:37:50.418Z,19.50
2018-07-31T11:40:21.671Z,19.50
2018-07-31T11:42:52.823Z,19.50
2018-07-31T11:45:23.966Z,19.60
2018-07-31T11:47:55.256Z,19.60
2018-07-31T11:50:26.613Z,19.60
2018-07-31T11:52:57.969Z,19.60
2018-07-31T11:55:29.242Z,19.70
2018-07-31T11:58:00.533Z,19.80
2018-07-31T12:00:31.742Z,20.00
2018-07-31T12:03:03.149Z,20.10
2018-07-31T12:05:34.376Z,20.20
2018-07-31T12:08:06.007Z,20.40
2018-07-31T12:10:37.386Z,20.50
2018-07-31T12:13:08.693Z,20.60
2018-07-31T12:15:39.919Z,20.60
2018-07-31T12:18:11.087Z,20.90
2018-07-31T12:20:42.218Z,21.10
2018-07-31T12:23:13.342Z,21.20
2018-07-31T12:25:44.557Z,21.30
2018-07-31T12:28:16.232Z,21.20
2018-07-31T12:30:48.546Z,20.90
2018-07-31T12:33:19.646Z,20.70
2018-07-31T12:35:50.776Z,20.70
2018-07-31T12:38:21.914Z,21.10
2018-07-31T12:40:53.112Z,21.40
2018-07-31T12:43:24.231Z,21.70
2018-07-31T12:45:55.501Z,21.60
2018-07-31T12:48:26.799Z,21.60
2018-07-31T12:50:58.175Z,21.60
2018-07-31T12:53:29.392Z,21.70
2018-07-31T12:56:00.683Z,21.90
2018-07-31T12:58:31.794Z,22.10
2018-07-31T13:01:03.026Z,22.20
2018-07-31T13:03:34.343Z,22.30
2018-07-31T13:06:05.731Z,22.40
2018-07-31T13:08:37.496Z,22.40
2018-07-31T13:11:08.895Z,22.40
2018-07-31T13:13:40.246Z,22.60
2018-07-31T13:16:11.920Z,22.90
2018-07-31T13:18:43.482Z,23.10
2018-07-31T13:21:14.951Z,23.20
2018-07-31T13:23:46.229Z,23.30
2018-07-31T13:26:17.540Z,23.50
2018-07-31T13:28:48.915Z,23.60
2018-07-31T13:31:20.114Z,23.80
2018-07-31T13:33:51.302Z,23.80
2018-07-31T13:36:22.713Z,23.90
2018-07-31T13:41:24.929Z,23.90
2018-07-31T13:43:56.426Z,24.10
2018-07-31T13:46:27.797Z,24.20
2018-07-31T13:48:58.998Z,24.30
2018-07-31T13:51:30.428Z,24.30
2018-07-31T13:54:01.821Z,24.30
2018-07-31T13:56:32.900Z,24.60
2018-07-31T13:59:04.103Z,24.70
2018-07-31T14:01:35.339Z,24.90
2018-07-31T14:04:06.526Z,24.90
2018-07-31T14:06:37.956Z,25.10
2018-07-31T14:09:11.321Z,25.20
2018-07-31T14:11:42.523Z,25.30
2018-07-31T14:14:13.850Z,25.30
2018-07-31T14:16:45.124Z,25.50
2018-07-31T14:19:16.503Z,25.50
2018-07-31T14:21:47.811Z,25.50
2018-07-31T14:24:19.099Z,25.50
2018-07-31T14:26:50.348Z,25.70
2018-07-31T14:29:21.658Z,25.90
2018-07-31T14:31:52.998Z,25.90
2018-07-31T14:34:24.173Z,26.00
2018-07-31T14:36:55.266Z,26.00
2018-07-31T14:39:26.775Z,26.10
2018-07-31T14:41:58.036Z,26.30
2018-07-31T14:46:59.661Z,26.10
2018-07-31T14:49:30.845Z,26.10
2018-07-31T14:52:02.065Z,26.30
2018-07-31T14:54:33.352Z,26.50
2018-07-31T14:57:04.561Z,26.80
2018-07-31T14:59:35.802Z,26.80
2018-07-31T15:02:06.982Z,26.80
2018-07-31T15:04:39.054Z,26.90
2018-07-31T15:07:10.469Z,27.20
2018-07-31T15:09:41.720Z,27.30
2018-07-31T15:12:12.915Z,27.20
2018-07-31T15:14:44.095Z,26.90
2018-07-31T15:17:15.348Z,27.10
2018-07-31T15:19:46.537Z,27.20
2018-07-31T15:22:17.812Z,27.30
2018-07-31T15:24:49.057Z,27.50
2018-07-31T15:27:20.320Z,27.50
2018-07-31T15:29:51.601Z,27.40
2018-07-31T15:32:22.832Z,27.60
2018-07-31T15:34:53.964Z,27.70
2018-07-31T15:37:25.115Z,27.60
2018-07-31T15:39:56.217Z,27.60
2018-07-31T15:42:27.348Z,27.70
2018-07-31T15:44:58.505Z,28.10
2018-07-31T15:47:29.798Z,28.20
2018-07-31T15:50:01.093Z,28.10
2018-07-31T15:52:32.303Z,28.00
2018-07-31T15:55:03.482Z,28.10
2018-07-31T15:57:34.696Z,28.30
2018-07-31T16:00:07.108Z,28.40
2018-07-31T16:02:38.670Z,28.60
2018-07-31T16:05:10.389Z,28.40
2018-07-31T16:07:41.683Z,28.50
2018-07-31T16:10:13.000Z,28.50
2018-07-31T16:12:44.222Z,28.40
2018-07-31T16:15:15.527Z,28.40
2018-07-31T16:17:46.875Z,28.50
2018-07-31T16:20:18.023Z,28.50
2018-07-31T16:22:49.286Z,28.60
2018-07-31T16:25:20.461Z,28.90
2018-07-31T16:30:21.965Z,28.70
2018-07-31T16:32:53.315Z,28.80
2018-07-31T16:35:24.703Z,28.90
2018-07-31T16:37:56.035Z,29.10
2018-07-31T16:40:27.180Z,29.10
2018-07-31T16:42:58.364Z,29.00
2018-07-31T16:47:59.608Z,29.10
2018-07-31T16:50:30.714Z,29.40
2018-07-31T16:53:01.871Z,29.50
2018-07-31T16:55:33.022Z,29.70
2018-07-31T16:58:04.120Z,29.70
2018-07-31T17:00:35.175Z,29.50
2018-07-31T17:03:06.266Z,29.70
2018-07-31T17:05:37.361Z,29.90
2018-07-31T17:08:08.478Z,29.80
2018-07-31T17:10:39.635Z,30.10
2018-07-31T17:13:10.803Z,30.20
2018-07-31T17:15:41.857Z,30.20
2018-07-31T17:18:12.827Z,29.30
2018-07-31T17:20:44.123Z,29.80
2018-07-31T17:23:15.223Z,30.10
2018-07-31T17:25:46.242Z,30.10
2018-07-31T17:28:17.228Z,30.20
2018-07-31T17:30:48.382Z,30.20
2018-07-31T17:33:19.397Z,30.00
2018-07-31T17:35:50.573Z,30.30
2018-07-31T17:38:21.830Z,30.30
2018-07-31T17:40:53.192Z,30.30
2018-07-31T17:43:24.482Z,30.70
2018-07-31T17:45:55.831Z,30.70
2018-07-31T17:48:27.129Z,30.60
2018-07-31T17:50:58.680Z,30.50
2018-07-31T17:53:29.998Z,30.30
2018-07-31T17:56:01.158Z,30.70
2018-07-31T17:58:32.299Z,30.50
2018-07-31T18:01:03.492Z,30.40
2018-07-31T18:06:05.102Z,31.00
2018-07-31T18:08:36.332Z,30.70
2018-07-31T18:11:07.555Z,30.80
2018-07-31T18:13:38.705Z,30.70
2018-07-31T18:16:09.744Z,30.80
2018-07-31T18:18:40.932Z,30.50
2018-07-31T18:21:12.187Z,30.70
2018-07-31T18:23:43.508Z,31.00
2018-07-31T18:26:14.579Z,31.00
2018-07-31T18:28:45.634Z,29.90
2018-07-31T18:31:16.816Z,29.90
2018-07-31T18:33:48.052Z,30.20
2018-07-31T18:36:19.185Z,30.40
2018-07-31T18:38:50.377Z,30.10
2018-07-31T18:41:21.508Z,30.70
2018-07-31T18:43:53.134Z,30.80
2018-07-31T18:46:24.386Z,30.90
2018-07-31T18:48:56.207Z,31.10
2018-07-31T18:51:27.372Z,31.10
2018-07-31T18:53:58.488Z,31.00
2018-07-31T18:56:29.723Z,31.20
2018-07-31T18:59:01.239Z,31.30
2018-07-31T19:01:32.592Z,31.20
2018-07-31T19:04:03.973Z,31.10
2018-07-31T19:06:35.303Z,30.90
2018-07-31T19:09:11.379Z,30.20
2018-07-31T19:11:43.738Z,30.90
2018-07-31T19:14:14.970Z,31.10
2018-07-31T19:16:46.424Z,31.20
2018-07-31T19:19:17.767Z,31.20
2018-07-31T19:21:48.910Z,31.10
2018-07-31T19:24:20.073Z,31.00
2018-07-31T19:26:51.135Z,31.40
2018-07-31T19:29:22.175Z,31.50
2018-07-31T19:31:53.451Z,31.30
2018-07-31T19:34:24.623Z,31.50
2018-07-31T19:36:55.798Z,31.00
2018-07-31T19:39:26.998Z,31.10
2018-07-31T19:41:58.458Z,31.40
2018-07-31T19:44:29.602Z,31.20
2018-07-31T19:47:00.911Z,31.00
2018-07-31T19:49:32.207Z,31.20
2018-07-31T19:52:03.551Z,31.10
2018-07-31T19:54:34.946Z,31.00
2018-07-31T19:57:06.352Z,31.20
2018-07-31T19:59:37.474Z,31.50
2018-07-31T20:02:09.016Z,31.50
2018-07-31T20:04:40.414Z,31.50
2018-07-31T20:07:11.662Z,31.50
2018-07-31T20:09:42.852Z,31.60
2018-07-31T20:12:13.968Z,31.60
2018-07-31T20:14:45.171Z,31.40
2018-07-31T20:17:16.290Z,31.50
2018-07-31T20:19:47.481Z,31.30
2018-07-31T20:22:18.719Z,31.70
2018-07-31T20:24:49.930Z,31.60
2018-07-31T20:27:21.297Z,31.40
2018-07-31T20:29:52.613Z,31.60
2018-07-31T20:32:23.767Z,31.30
2018-07-31T20:34:54.924Z,31.50
2018-07-31T20:37:26.965Z,31.30
2018-07-31T20:39:58.088Z,31.10
2018-07-31T20:42:29.282Z,31.20
2018-07-31T20:45:00.618Z,31.10
2018-07-31T20:47:31.788Z,31.60
2018-07-31T20:50:03.140Z,31.60
2018-07-31T20:52:34.474Z,31.70
2018-07-31T20:55:05.808Z,31.30
2018-07-31T20:57:37.068Z,30.10
2018-07-31T21:00:08.852Z,29.10
2018-07-31T21:02:40.443Z,28.90
2018-07-31T21:05:11.617Z,29.50
2018-07-31T21:07:42.813Z,30.00
2018-07-31T21:10:14.006Z,30.40
2018-07-31T21:12:45.382Z,30.40
2018-07-31T21:15:16.446Z,30.80
2018-07-31T21:17:47.682Z,30.70
2018-07-31T21:20:18.877Z,30.90
2018-07-31T21:25:20.343Z,31.00
2018-07-31T21:27:51.827Z,31.10
2018-07-31T21:30:23.569Z,31.50
2018-07-31T21:32:54.917Z,31.50
2018-07-31T21:35:26.412Z,31.50
2018-07-31T21:37:59.231Z,31.50
2018-07-31T21:40:30.454Z,31.40
2018-07-31T21:43:01.983Z,31.20
2018-07-31T21:45:33.439Z,30.60
2018-07-31T21:48:05.379Z,30.50
2018-07-31T21:50:36.703Z,30.40
2018-07-31T21:53:07.811Z,30.40
2018-07-31T21:55:38.897Z,30.20
2018-07-31T21:58:11.400Z,30.10
2018-07-31T22:00:47.148Z,30.10
2018-07-31T22:03:18.336Z,30.10
2018-07-31T22:05:49.536Z,29.50
2018-07-31T22:08:20.544Z,29.40
2018-07-31T22:10:51.775Z,29.20
2018-07-31T22:13:22.970Z,29.20
2018-07-31T22:15:54.078Z,29.10
2018-07-31T22:18:25.427Z,29.30
2018-07-31T22:20:56.734Z,29.10
2018-07-31T22:23:31.888Z,29.20
2018-07-31T22:26:03.026Z,29.40
2018-07-31T22:28:34.311Z,29.50
2018-07-31T22:31:05.687Z,29.50
2018-07-31T22:33:36.874Z,29.40
2018-07-31T22:36:08.020Z,29.10
2018-07-31T22:38:39.291Z,29.10
2018-07-31T22:41:10.655Z,28.80
2018-07-31T22:43:41.991Z,28.90
2018-07-31T22:46:13.176Z,28.60
2018-07-31T22:48:44.407Z,28.40
2018-07-31T22:51:15.939Z,28.30
2018-07-31T22:53:47.186Z,28.20
2018-07-31T22:56:18.657Z,28.00
2018-07-31T22:58:49.944Z,27.90
2018-07-31T23:01:21.358Z,27.90
2018-07-31T23:03:52.554Z,27.80
2018-07-31T23:06:23.826Z,27.80
2018-07-31T23:08:55.119Z,27.70
2018-07-31T23:11:26.306Z,27.50
2018-07-31T23:13:58.009Z,27.20
2018-07-31T23:16:29.399Z,26.90
2018-07-31T23:21:30.759Z,26.50
2018-07-31T23:24:01.912Z,26.30
2018-07-31T23:26:33.079Z,26.10
2018-07-31T23:29:04.142Z,25.90
2018-07-31T23:31:35.303Z,25.80
2018-07-31T23:34:06.538Z,25.70
2018-07-31T23:36:38.131Z,25.60
2018-07-31T23:39:11.653Z,25.40
2018-07-31T23:41:42.922Z,25.30
2018-07-31T23:44:14.194Z,25.30
2018-07-31T23:46:45.343Z,25.10
2018-07-31T23:49:16.506Z,25.00
2018-07-31T23:51:47.773Z,24.90
2018-07-31T23:54:19.071Z,24.80
2018-07-31T23:56:50.323Z,24.70
2018-07-31T23:59:21.634Z,24.60
